Time;durP1;ratioP1;P1;durP2;ratioP2;P2;SDS_P1;SDS_P2;PMS_P1;PMS_P2;Temp;Humidity;BMP_temperature;BMP_pressure;BME280_temperature;BME280_humidity;BME280_pressure;Samples;Min_cycle;Max_cycle;Signal;HPM_P1;HPM_P2
2022/10/10 00:01:17;;;;;;;4.13;1.90;;;11.20;73.80;;;;;;5052245;28;20496;-83
2022/10/10 00:03:43;;;;;;;4.10;2.13;;;11.10;73.80;;;;;;5052247;28;20488;-83
2022/10/10 00:06:10;;;;;;;5.97;2.15;;;11.20;73.90;;;;;;5008202;28;1265801;-83
2022/10/10 00:08:37;;;;;;;6.20;2.23;;;11.10;74.00;;;;;;5055077;28;20024;-84
2022/10/10 00:11:03;;;;;;;6.57;1.87;;;11.10;74.10;;;;;;5055062;28;20465;-83
2022/10/10 00:13:30;;;;;;;4.63;2.00;;;11.00;74.20;;;;;;5054081;28;20443;-83
2022/10/10 00:15:55;;;;;;;4.50;2.00;;;11.00;74.40;;;;;;5053083;28;20025;-83
2022/10/10 00:18:21;;;;;;;5.53;2.17;;;11.00;74.50;;;;;;5052650;28;20449;-83
2022/10/10 00:20:49;;;;;;;6.07;2.20;;;10.90;74.60;;;;;;5052410;28;20013;-83
2022/10/10 00:23:15;;;;;;;4.53;2.17;;;10.90;74.70;;;;;;5054092;28;20025;-83
2022/10/10 00:25:41;;;;;;;7.83;2.47;;;10.80;74.70;;;;;;5052417;28;20067;-83
2022/10/10 00:28:07;;;;;;;4.63;2.00;;;10.80;74.90;;;;;;5019669;28;20025;-83
2022/10/10 00:30:32;;;;;;;6.73;2.60;;;10.70;75.10;;;;;;5035593;28;20036;-83
2022/10/10 00:32:59;;;;;;;5.33;2.40;;;10.60;75.20;;;;;;5035559;28;20044;-83
2022/10/10 00:35:26;;;;;;;4.27;1.80;;;10.60;75.30;;;;;;5052143;28;20067;-83
2022/10/10 00:37:52;;;;;;;7.37;2.63;;;10.60;75.40;;;;;;5052188;28;20021;-83
2022/10/10 00:40:18;;;;;;;5.20;2.50;;;10.60;76.20;;;;;;5052134;28;20013;-83
2022/10/10 00:42:46;;;;;;;7.50;2.33;;;10.50;75.70;;;;;;5035921;28;20036;-83
2022/10/10 00:45:41;;;;;;;5.73;2.17;;;10.50;75.90;;;;;;5035961;28;20025;-83
2022/10/10 00:48:21;;;;;;;7.30;2.43;;;10.40;76.20;;;;;;5052081;28;20017;-83
2022/10/10 00:51:12;;;;;;;5.63;2.33;;;10.50;76.30;;;;;;5052539;28;20070;-83
2022/10/10 00:53:45;;;;;;;5.33;2.33;;;10.40;76.40;;;;;;5052033;28;20025;-84
2022/10/10 00:56:12;;;;;;;6.05;2.40;;;10.30;76.40;;;;;;5052004;28;20029;-83
2022/10/10 00:58:47;;;;;;;5.80;2.30;;;10.30;76.60;;;;;;5051917;28;20529;-83
2022/10/10 01:01:13;;;;;;;4.43;1.93;;;10.30;76.70;;;;;;5051859;28;20473;-83
2022/10/10 01:03:38;;;;;;;3.80;2.03;;;10.30;76.90;;;;;;5051891;28;20074;-83
2022/10/10 01:06:05;;;;;;;5.13;2.70;;;10.20;77.00;;;;;;5035434;28;20136;-83
2022/10/10 01:08:32;;;;;;;6.10;2.23;;;10.20;77.20;;;;;;5051806;28;20021;-84
2022/10/10 01:11:00;;;;;;;6.53;2.17;;;10.20;77.30;;;;;;5051775;28;20363;-84
2022/10/10 01:13:52;;;;;;;7.20;2.10;;;10.20;77.50;;;;;;5051928;28;20338;-84
2022/10/10 01:16:24;;;;;;;5.80;2.20;;;10.10;77.60;;;;;;5051654;28;20074;-84
2022/10/10 01:19:21;;;;;;;5.40;2.13;;;10.10;77.70;;;;;;5052005;28;20036;-84
2022/10/10 01:21:55;;;;;;;6.07;3.27;;;10.10;77.90;;;;;;5052512;28;20465;-84
2022/10/10 01:24:32;;;;;;;8.43;2.70;;;10.00;78.00;;;;;;5057398;28;20107;-84
2022/10/10 01:27:07;;;;;;;9.57;2.80;;;10.00;78.10;;;;;;5055819;28;20041;-84
2022/10/10 01:29:47;;;;;;;9.30;2.53;;;10.00;78.30;;;;;;5055553;28;20037;-83
2022/10/10 01:32:27;;;;;;;3.90;2.07;;;10.00;78.50;;;;;;5055674;28;20025;-83
2022/10/10 01:35:13;;;;;;;7.93;2.30;;;9.90;78.50;;;;;;5055205;28;20037;-83
2022/10/10 01:38:04;;;;;;;4.33;2.30;;;10.00;78.70;;;;;;5055647;28;20030;-83
2022/10/10 01:40:54;;;;;;;7.40;2.27;;;9.90;78.80;;;;;;5055555;28;20079;-84
2022/10/10 01:43:40;;;;;;;4.43;2.17;;;9.90;78.80;;;;;;5055451;28;20025;-83
2022/10/10 01:46:11;;;;;;;7.30;2.63;;;9.90;78.90;;;;;;5056178;28;20046;-83
2022/10/10 01:48:38;;;;;;;6.27;2.23;;;9.90;79.10;;;;;;5055117;28;20127;-83
2022/10/10 01:51:22;;;;;;;6.23;2.33;;;9.90;79.20;;;;;;5038886;28;20033;-83
2022/10/10 01:53:47;;;;;;;9.98;3.15;;;9.90;79.30;;;;;;5055149;28;20032;-83
2022/10/10 01:56:25;;;;;;;8.20;2.67;;;9.90;79.40;;;;;;5055156;28;20108;-84
2022/10/10 01:59:29;;;;;;;9.33;2.70;;;9.80;79.50;;;;;;5055105;28;20120;-83
2022/10/10 02:02:19;;;;;;;5.33;2.50;;;9.80;79.70;;;;;;5027800;28;20362;-83
2022/10/10 02:04:55;;;;;;;6.53;2.73;;;9.90;79.80;;;;;;5038553;28;20024;-83
2022/10/10 02:07:31;;;;;;;7.30;2.83;;;9.80;79.90;;;;;;5054741;28;20045;-84
2022/10/10 02:09:59;;;;;;;5.27;2.50;;;9.80;80.00;;;;;;5055197;28;20106;-84
2022/10/10 02:12:27;;;;;;;6.80;2.40;;;9.80;80.20;;;;;;5054862;28;20021;-84
2022/10/10 02:15:00;;;;;;;6.57;2.60;;;9.70;80.30;;;;;;5055187;28;20396;-83
2022/10/10 02:17:26;;;;;;;5.70;2.40;;;9.80;80.50;;;;;;5054652;28;20108;-83
2022/10/10 02:19:55;;;;;;;9.13;2.80;;;9.70;80.60;;;;;;5038239;28;20056;-83
2022/10/10 02:22:23;;;;;;;7.70;2.93;;;9.70;80.70;;;;;;5055038;28;20074;-83
2022/10/10 02:24:50;;;;;;;6.70;2.73;;;9.70;80.80;;;;;;5054639;28;20021;-83
2022/10/10 02:27:24;;;;;;;5.90;3.00;;;9.60;80.90;;;;;;5037874;28;20067;-84
2022/10/10 02:29:52;;;;;;;5.90;2.33;;;9.60;81.00;;;;;;5055836;28;20389;-83
2022/10/10 02:32:54;;;;;;;5.90;2.70;;;9.70;81.20;;;;;;5055787;28;20099;-83
2022/10/10 02:35:26;;;;;;;8.37;2.57;;;9.60;81.20;;;;;;5037390;28;20036;-84
2022/10/10 02:37:53;;;;;;;5.63;1.97;;;9.50;81.20;;;;;;5037759;28;20024;-84
2022/10/10 02:40:31;;;;;;;7.00;2.93;;;9.60;81.30;;;;;;5054274;28;20021;-83
2022/10/10 02:42:59;;;;;;;5.80;2.63;;;9.60;81.50;;;;;;5038089;28;20413;-83
2022/10/10 02:45:27;;;;;;;9.27;3.00;;;9.50;81.60;;;;;;5055455;28;20465;-83
2022/10/10 02:47:53;;;;;;;7.77;2.87;;;9.50;81.60;;;;;;5054131;28;20029;-83
2022/10/10 02:50:20;;;;;;;9.70;3.03;;;9.50;81.80;;;;;;5054097;28;20074;-83
2022/10/10 02:52:45;;;;;;;6.00;3.03;;;9.40;81.90;;;;;;5054061;28;20021;-83
2022/10/10 02:55:11;;;;;;;4.20;2.17;;;9.50;82.00;;;;;;5054089;28;20013;-83
2022/10/10 02:57:37;;;;;;;6.00;2.50;;;9.40;82.10;;;;;;5054032;28;20469;-84
2022/10/10 03:00:04;;;;;;;5.90;2.73;;;9.40;82.20;;;;;;5037768;28;20032;-83
2022/10/10 03:02:30;;;;;;;6.77;2.93;;;9.40;82.30;;;;;;5055181;28;20029;-83
2022/10/10 03:04:57;;;;;;;5.30;2.47;;;9.40;82.40;;;;;;5037636;28;20374;-83
2022/10/10 03:07:24;;;;;;;8.60;3.03;;;9.40;82.60;;;;;;5037296;28;20107;-83
2022/10/10 03:09:50;;;;;;;7.80;2.80;;;9.40;82.60;;;;;;5054974;28;20044;-83
2022/10/10 03:12:16;;;;;;;6.33;2.70;;;9.40;82.70;;;;;;5054356;28;20048;-83
2022/10/10 03:14:43;;;;;;;6.50;2.73;;;9.30;82.80;;;;;;5053663;28;20480;-83
2022/10/10 03:17:09;;;;;;;6.10;2.33;;;9.40;82.90;;;;;;5053498;28;20021;-83
2022/10/10 03:19:35;;;;;;;5.70;2.57;;;9.30;83.10;;;;;;5053889;28;20531;-83
2022/10/10 03:22:01;;;;;;;5.33;2.63;;;9.30;83.20;;;;;;5054871;28;20101;-83
2022/10/10 03:24:26;;;;;;;4.90;2.60;;;9.30;83.20;;;;;;5053494;28;20017;-83
2022/10/10 03:26:52;;;;;;;7.63;3.10;;;9.30;83.30;;;;;;5036793;28;20563;-83
2022/10/10 03:29:18;;;;;;;9.30;3.00;;;9.30;83.40;;;;;;5053422;28;20052;-83
2022/10/10 03:31:43;;;;;;;5.60;2.63;;;9.30;83.50;;;;;;5053510;28;20025;-83
2022/10/10 03:34:09;;;;;;;6.77;2.73;;;9.30;83.60;;;;;;5053228;28;20085;-83
2022/10/10 03:36:35;;;;;;;9.30;3.63;;;9.30;83.70;;;;;;5053573;28;20465;-83
2022/10/10 03:39:04;;;;;;;6.70;3.17;;;9.20;84.40;;;;;;5053800;28;20024;-83
2022/10/10 03:41:30;;;;;;;8.73;2.93;;;9.20;83.80;;;;;;5053186;28;20461;-83
2022/10/10 03:43:55;;;;;;;7.17;3.00;;;9.30;83.90;;;;;;5053054;28;20021;-83
2022/10/10 03:46:21;;;;;;;7.63;2.80;;;9.20;84.10;;;;;;5035929;28;20591;-84
2022/10/10 03:48:47;;;;;;;9.43;3.50;;;9.10;84.30;;;;;;5054281;28;20021;-83
2022/10/10 03:51:15;;;;;;;6.70;3.27;;;9.10;84.30;;;;;;5052968;28;20013;-83
2022/10/10 03:53:41;;;;;;;6.17;3.33;;;9.10;84.40;;;;;;5036436;28;20119;-83
2022/10/10 03:56:06;;;;;;;7.73;3.00;;;9.10;84.50;;;;;;5036440;28;20055;-83
2022/10/10 03:58:32;;;;;;;7.30;3.03;;;9.10;84.60;;;;;;5052778;28;20124;-83
2022/10/10 04:01:00;;;;;;;7.33;2.87;;;9.00;84.70;;;;;;5054034;28;20025;-83
2022/10/10 04:03:26;;;;;;;5.23;2.77;;;9.10;84.80;;;;;;5052794;28;20051;-84
2022/10/10 04:05:53;;;;;;;10.17;3.67;;;9.00;84.90;;;;;;5035848;28;20036;-83
2022/10/10 04:08:19;;;;;;;8.30;3.67;;;9.00;85.00;;;;;;5052983;28;20024;-83
2022/10/10 04:10:52;;;;;;;7.27;3.30;;;9.00;85.10;;;;;;5053248;28;20044;-83
2022/10/10 04:13:19;;;;;;;7.67;2.93;;;9.00;85.20;;;;;;5039085;28;20024;-83
2022/10/10 04:15:50;;;;;;;6.93;2.80;;;9.00;85.30;;;;;;5035464;28;20056;-83
2022/10/10 04:18:16;;;;;;;6.73;3.53;;;8.90;85.30;;;;;;5025347;28;20377;-83
2022/10/10 04:20:42;;;;;;;7.30;3.23;;;8.80;85.40;;;;;;5020819;28;20373;-83
2022/10/10 04:23:07;;;;;;;7.83;3.20;;;8.90;85.50;;;;;;5011367;28;20033;-87
2022/10/10 04:25:33;;;;;;;7.03;3.23;;;8.90;85.60;;;;;;5036433;28;20044;-88
2022/10/10 04:27:59;;;;;;;7.87;3.30;;;8.80;85.70;;;;;;5053842;28;20115;-88
2022/10/10 04:30:24;;;;;;;7.03;3.13;;;8.80;85.70;;;;;;5054024;28;20020;-89
2022/10/10 04:32:50;;;;;;;10.00;3.23;;;8.80;85.90;;;;;;5038657;28;20031;-88
2022/10/10 04:35:16;;;;;;;7.83;3.90;;;8.80;86.00;;;;;;5053918;28;20032;-87
2022/10/10 04:37:41;;;;;;;7.20;3.63;;;8.70;86.10;;;;;;5053779;28;20063;-87
2022/10/10 04:40:08;;;;;;;8.63;3.63;;;8.70;86.20;;;;;;5053157;28;20067;-87
2022/10/10 04:42:34;;;;;;;9.00;3.57;;;8.70;86.40;;;;;;5053864;28;20469;-88
2022/10/10 04:45:00;;;;;;;7.27;3.23;;;8.70;86.40;;;;;;5054045;28;20500;-88
2022/10/10 04:47:26;;;;;;;6.73;3.87;;;8.70;86.50;;;;;;5037169;28;20033;-89
2022/10/10 04:49:51;;;;;;;7.60;3.50;;;8.70;86.60;;;;;;5054478;28;20029;-87
2022/10/10 04:52:17;;;;;;;6.53;2.97;;;8.70;86.70;;;;;;5037753;28;20017;-88
2022/10/10 04:54:43;;;;;;;7.73;3.90;;;8.70;86.90;;;;;;5038426;28;20035;-88
2022/10/10 04:57:08;;;;;;;8.50;3.40;;;8.70;87.10;;;;;;5053861;28;20110;-88
2022/10/10 04:59:51;;;;;;;6.97;3.33;;;8.60;87.20;;;;;;5061164;28;20079;-88
2022/10/10 05:02:17;;;;;;;11.23;3.87;;;8.60;87.30;;;;;;5062040;28;20055;-88
2022/10/10 05:04:43;;;;;;;10.97;4.40;;;8.50;87.40;;;;;;5040489;28;20033;-88
2022/10/10 05:07:08;;;;;;;6.93;3.33;;;8.60;87.60;;;;;;5041017;28;20428;-87
2022/10/10 05:09:34;;;;;;;9.17;3.00;;;8.60;87.80;;;;;;5057002;28;20525;-88
2022/10/10 05:12:03;;;;;;;11.63;4.27;;;8.60;87.80;;;;;;5057617;28;20074;-88
2022/10/10 05:14:29;;;;;;;9.43;3.33;;;8.60;88.00;;;;;;5055050;28;20089;-88
2022/10/10 05:16:54;;;;;;;8.60;3.30;;;8.50;88.10;;;;;;5038028;28;20029;-87
2022/10/10 05:19:20;;;;;;;9.07;3.83;;;8.60;88.30;;;;;;5053502;28;20473;-87
2022/10/10 05:21:46;;;;;;;12.57;3.87;;;8.60;88.40;;;;;;5053609;28;20028;-88
2022/10/10 05:24:12;;;;;;;11.50;4.33;;;8.60;88.60;;;;;;5053628;28;20503;-88
2022/10/10 05:26:40;;;;;;;6.63;3.30;;;8.60;88.70;;;;;;5056764;28;20056;-88
2022/10/10 05:29:06;;;;;;;11.53;4.47;;;8.60;88.80;;;;;;5055164;28;20029;-87
2022/10/10 05:31:32;;;;;;;9.43;3.40;;;8.60;88.90;;;;;;5055888;28;20029;-88
2022/10/10 05:33:58;;;;;;;10.33;4.33;;;8.50;89.00;;;;;;5055861;28;20032;-88
2022/10/10 05:36:24;;;;;;;7.50;4.43;;;8.50;89.00;;;;;;5058096;28;20017;-88
2022/10/10 05:38:49;;;;;;;9.47;3.67;;;8.60;89.10;;;;;;5053837;28;20029;-87
2022/10/10 05:41:15;;;;;;;7.23;3.67;;;8.50;89.20;;;;;;5036688;28;20033;-88
2022/10/10 05:43:41;;;;;;;9.83;4.20;;;8.50;89.30;;;;;;5037297;28;20033;-88
2022/10/10 05:46:06;;;;;;;8.30;3.90;;;8.50;89.40;;;;;;5037928;28;20033;-88
2022/10/10 05:48:32;;;;;;;7.80;4.40;;;8.50;89.60;;;;;;5053375;28;20039;-88
2022/10/10 05:51:00;;;;;;;13.40;4.10;;;8.50;89.80;;;;;;5052836;28;20071;-88
2022/10/10 05:53:27;;;;;;;8.50;3.63;;;8.40;89.90;;;;;;5036906;28;20043;-88
2022/10/10 05:55:53;;;;;;;8.67;3.97;;;8.50;90.00;;;;;;5036053;28;20017;-88
2022/10/10 05:58:19;;;;;;;9.37;4.00;;;8.50;90.10;;;;;;5036495;28;20032;-88
2022/10/10 06:00:46;;;;;;;10.80;4.30;;;8.50;90.20;;;;;;5037910;28;20362;-88
2022/10/10 06:03:15;;;;;;;12.87;4.80;;;8.40;90.20;;;;;;5042438;28;20021;-89
2022/10/10 06:05:42;;;;;;;8.23;3.43;;;8.50;90.30;;;;;;5045407;28;20088;-87
2022/10/10 06:08:07;;;;;;;8.53;3.53;;;8.50;90.30;;;;;;5045705;28;20041;-88
2022/10/10 06:10:44;;;;;;;10.03;4.27;;;8.50;90.30;;;;;;5043904;28;20036;-88
2022/10/10 06:13:26;;;;;;;12.57;5.20;;;8.50;90.40;;;;;;5025197;28;20029;-88
2022/10/10 06:15:52;;;;;;;17.70;5.60;;;8.50;90.40;;;;;;5039029;28;20032;-88
2022/10/10 06:18:17;;;;;;;12.00;4.70;;;8.50;90.40;;;;;;5039815;28;20021;-87
2022/10/10 06:20:46;;;;;;;12.03;4.57;;;8.60;90.50;;;;;;5040506;28;20071;-88
2022/10/10 06:23:12;;;;;;;10.73;4.73;;;8.60;90.60;;;;;;5040531;28;20037;-88
2022/10/10 06:25:38;;;;;;;13.67;5.07;;;8.60;90.70;;;;;;5040202;28;20370;-89
2022/10/10 06:28:04;;;;;;;13.53;5.17;;;8.60;90.80;;;;;;5039018;28;20068;-89
2022/10/10 06:30:30;;;;;;;12.63;4.77;;;8.60;90.90;;;;;;5037642;28;20052;-85
2022/10/10 06:32:57;;;;;;;11.57;4.60;;;8.80;91.10;;;;;;5055689;28;20055;-86
2022/10/10 06:35:26;;;;;;;8.50;4.40;;;8.70;91.10;;;;;;5038463;28;20029;-86
2022/10/10 06:37:54;;;;;;;11.33;5.23;;;8.70;91.20;;;;;;5037892;28;20025;-86
2022/10/10 06:40:20;;;;;;;11.77;4.93;;;8.80;91.20;;;;;;5055626;28;20099;-86
2022/10/10 06:42:45;;;;;;;10.93;5.10;;;8.80;91.30;;;;;;5021403;28;20067;-86
2022/10/10 06:45:13;;;;;;;9.57;4.40;;;8.90;91.40;;;;;;5037542;28;20029;-86
2022/10/10 06:47:42;;;;;;;7.63;4.73;;;8.90;91.40;;;;;;5005433;28;20036;-86
2022/10/10 06:50:08;;;;;;;11.70;4.83;;;8.90;91.50;;;;;;5021609;28;20030;-86
2022/10/10 06:52:33;;;;;;;11.30;4.53;;;9.00;91.60;;;;;;5021582;28;20029;-86
2022/10/10 06:54:59;;;;;;;10.77;5.43;;;9.00;91.70;;;;;;5037412;28;20021;-85
2022/10/10 06:57:25;;;;;;;9.40;5.07;;;9.10;91.80;;;;;;5037789;28;20029;-85
2022/10/10 06:59:50;;;;;;;10.57;4.93;;;9.10;91.90;;;;;;5030790;28;20029;-85
2022/10/10 07:02:16;;;;;;;13.10;5.27;;;9.20;92.00;;;;;;5019771;28;20083;-86
2022/10/10 07:04:45;;;;;;;12.43;5.10;;;9.20;92.10;;;;;;5021102;28;20053;-86
2022/10/10 07:07:13;;;;;;;10.80;5.63;;;9.30;92.20;;;;;;5033674;28;20397;-86
2022/10/10 07:09:41;;;;;;;7.67;4.13;;;9.40;92.30;;;;;;5017600;28;20029;-86
2022/10/10 07:12:09;;;;;;;9.43;4.70;;;9.50;92.40;;;;;;5033823;28;20048;-86
2022/10/10 07:14:38;;;;;;;7.93;4.90;;;9.50;92.50;;;;;;5033892;28;20021;-87
2022/10/10 07:17:06;;;;;;;10.40;4.97;;;9.60;92.60;;;;;;5035370;28;20496;-87
2022/10/10 07:19:34;;;;;;;9.57;5.60;;;9.70;92.70;;;;;;5033252;28;20465;-86
2022/10/10 07:22:00;;;;;;;11.63;5.07;;;9.70;92.70;;;;;;5033602;28;20018;-86
2022/10/10 07:24:26;;;;;;;13.80;5.17;;;9.80;92.70;;;;;;5033714;28;20030;-86
2022/10/10 07:26:54;;;;;;;8.13;5.20;;;9.90;92.80;;;;;;5033918;28;20203;-86
2022/10/10 07:29:23;;;;;;;13.20;5.10;;;9.90;92.90;;;;;;5034130;28;20424;-86
2022/10/10 07:31:49;;;;;;;13.63;5.50;;;10.00;93.00;;;;;;5034713;28;20021;-86
2022/10/10 07:34:15;;;;;;;7.63;4.73;;;10.00;93.00;;;;;;5033335;28;20505;-86
2022/10/10 07:36:40;;;;;;;11.50;5.50;;;10.10;93.00;;;;;;5017188;28;20061;-86
2022/10/10 07:39:06;;;;;;;10.00;6.13;;;10.10;93.10;;;;;;5033413;28;20075;-86
2022/10/10 07:41:32;;;;;;;10.60;5.27;;;10.20;93.50;;;;;;5033365;28;20064;-86
2022/10/10 07:44:02;;;;;;;12.00;5.00;;;10.30;93.30;;;;;;5033397;28;20032;-87
2022/10/10 07:46:30;;;;;;;9.23;4.97;;;10.30;93.40;;;;;;5033724;28;20449;-86
2022/10/10 07:48:58;;;;;;;9.33;4.77;;;10.40;93.30;;;;;;5033317;28;20108;-86
2022/10/10 07:51:24;;;;;;;9.97;4.90;;;10.50;93.50;;;;;;5034491;28;20017;-86
2022/10/10 07:53:51;;;;;;;7.70;4.83;;;10.50;93.50;;;;;;5034675;28;20020;-87
2022/10/10 07:56:17;;;;;;;9.73;5.10;;;10.60;93.50;;;;;;5034477;28;20026;-86
2022/10/10 07:58:42;;;;;;;9.23;5.17;;;10.60;93.60;;;;;;5034048;28;20037;-86
2022/10/10 08:01:12;;;;;;;10.20;5.20;;;10.80;93.60;;;;;;5033372;28;20391;-86
2022/10/10 08:03:41;;;;;;;10.67;5.40;;;10.80;93.80;;;;;;5033797;28;20022;-86
2022/10/10 08:06:17;;;;;;;12.13;5.23;;;10.90;93.80;;;;;;5033636;28;20079;-86
2022/10/10 08:08:52;;;;;;;9.97;5.30;;;11.10;93.90;;;;;;5033005;28;20037;-87
2022/10/10 08:11:45;;;;;;;9.73;4.10;;;11.10;93.80;;;;;;5028873;28;20487;-86
2022/10/10 08:14:34;;;;;;;8.27;4.50;;;11.30;93.90;;;;;;5049929;28;20525;-87
2022/10/10 08:17:02;;;;;;;10.23;4.63;;;11.40;93.80;;;;;;5032513;28;20122;-86
2022/10/10 08:19:42;;;;;;;12.18;5.82;;;11.50;93.70;;;;;;5049498;28;20488;-86
2022/10/10 08:22:11;;;;;;;12.15;5.32;;;11.50;93.70;;;;;;5017457;28;20083;-86
2022/10/10 08:24:39;;;;;;;9.00;4.80;;;11.60;93.60;;;;;;5033783;28;20064;-86
2022/10/10 08:27:04;;;;;;;8.57;4.75;;;11.70;93.60;;;;;;5034730;28;20029;-85
2022/10/10 08:29:51;;;;;;;9.80;4.90;;;11.80;93.60;;;;;;5049331;28;20124;-86
2022/10/10 08:32:24;;;;;;;10.45;4.32;;;11.80;93.60;;;;;;5033135;28;20474;-86
2022/10/10 08:34:50;;;;;;;11.02;3.95;;;11.90;93.60;;;;;;5049377;28;20026;-84
2022/10/10 08:37:24;;;;;;;9.85;4.70;;;12.00;93.60;;;;;;5049076;28;20034;-85
2022/10/10 08:39:50;;;;;;;8.27;4.57;;;12.10;93.60;;;;;;5049079;28;20398;-86
2022/10/10 08:42:47;;;;;;;9.00;4.50;;;12.20;93.60;;;;;;5049435;28;20025;-86
2022/10/10 08:45:34;;;;;;;10.57;4.38;;;12.20;93.50;;;;;;5049139;28;20057;-86
2022/10/10 08:48:15;;;;;;;8.07;4.18;;;12.30;93.40;;;;;;5032252;28;20454;-87
2022/10/10 08:50:48;;;;;;;9.13;4.13;;;12.50;93.30;;;;;;5049337;28;20028;-86
2022/10/10 08:53:30;;;;;;;9.53;4.37;;;12.40;93.20;;;;;;5049131;28;20026;-87
2022/10/10 08:55:59;;;;;;;8.30;4.03;;;12.60;93.20;;;;;;5049076;28;20303;-86
2022/10/10 08:58:45;;;;;;;11.63;4.80;;;12.70;93.10;;;;;;5032318;28;20030;-86
2022/10/10 09:01:19;;;;;;;8.23;4.05;;;12.70;93.00;;;;;;5049161;28;20394;-86
2022/10/10 09:03:53;;;;;;;9.05;4.40;;;12.80;93.00;;;;;;5048836;28;20037;-86
2022/10/10 09:06:25;;;;;;;;;;;12.90;92.80;;;;;;5050507;28;20030;-85
2022/10/10 09:09:13;;;;;;;11.18;3.35;;;13.00;92.80;;;;;;5050864;28;19909;-86
2022/10/10 09:11:50;;;;;;;8.35;3.60;;;13.20;92.60;;;;;;5051925;28;20116;-87
2022/10/10 09:14:51;;;;;;;10.82;4.07;;;13.30;92.50;;;;;;5051845;28;20397;-86
2022/10/10 09:17:24;;;;;;;6.72;3.38;;;13.40;92.40;;;;;;5052040;28;20044;-85
2022/10/10 09:20:08;;;;;;;10.02;4.45;;;13.60;92.30;;;;;;5051899;28;20025;-86
2022/10/10 09:22:51;;;;;;;8.65;4.55;;;13.70;92.00;;;;;;5051858;28;20485;-86
2022/10/10 09:25:41;;;;;;;10.70;4.00;;;13.80;91.80;;;;;;5052328;28;20385;-86
2022/10/10 09:28:38;;;;;;;8.52;3.72;;;14.00;91.60;;;;;;5052047;28;20017;-87
2022/10/10 09:31:46;;;;;;;9.20;3.63;;;14.00;91.50;;;;;;5026401;28;20056;-86
2022/10/10 09:34:15;;;;;;;8.75;3.55;;;14.20;91.40;;;;;;5022142;28;20125;-86
2022/10/10 09:36:41;;;;;;;11.30;4.18;;;14.40;91.20;;;;;;5051629;28;20420;-86
2022/10/10 09:39:27;;;;;;;7.38;3.17;;;14.60;91.10;;;;;;5035134;28;20018;-85
2022/10/10 09:42:01;;;;;;;10.10;3.67;;;14.80;90.80;;;;;;5052200;28;20029;-86
2022/10/10 09:44:28;;;;;;;8.75;4.07;;;15.00;90.50;;;;;;5054798;28;20083;-86
2022/10/10 09:46:57;;;;;;;7.90;3.35;;;15.30;90.40;;;;;;5056027;28;20048;-87
2022/10/10 09:49:23;;;;;;;7.38;3.75;;;15.60;90.20;;;;;;5055843;28;20029;-86
2022/10/10 09:51:54;;;;;;;9.15;3.30;;;15.70;90.00;;;;;;5039262;28;20457;-87
2022/10/10 09:54:24;;;;;;;7.72;2.83;;;15.90;89.50;;;;;;5055919;28;20029;-87
2022/10/10 09:57:09;;;;;;;7.65;3.38;;;16.00;88.70;;;;;;5055647;28;20044;-87
2022/10/10 09:59:46;;;;;;;8.45;2.88;;;16.20;87.80;;;;;;5056273;28;20029;-87
2022/10/10 10:02:21;;;;;;;9.30;3.22;;;16.40;87.20;;;;;;5055644;28;20021;-87
2022/10/10 10:04:48;;;;;;;8.02;2.63;;;16.50;86.50;;;;;;5055345;28;20025;-86
2022/10/10 10:07:17;;;;;;;6.38;2.92;;;16.60;85.50;;;;;;5038110;28;20051;-84
2022/10/10 10:09:52;;;;;;;8.90;3.28;;;16.80;85.20;;;;;;5054873;28;20029;-86
2022/10/10 10:12:42;;;;;;;6.78;2.92;;;17.00;84.10;;;;;;5055410;28;20033;-87
2022/10/10 10:15:31;;;;;;;7.40;2.55;;;17.40;84.20;;;;;;5056298;28;20017;-87
2022/10/10 10:18:23;;;;;;;9.23;2.90;;;17.90;82.80;;;;;;5054748;28;20078;-86
2022/10/10 10:21:01;;;;;;;4.63;2.15;;;18.10;81.40;;;;;;5055402;28;20102;-86
2022/10/10 10:23:34;;;;;;;9.88;3.13;;;18.10;79.70;;;;;;5055075;28;20039;-87
2022/10/10 10:26:05;;;;;;;7.03;3.25;;;18.00;78.70;;;;;;5056134;28;20422;-87
2022/10/10 10:28:38;;;;;;;8.85;3.35;;;17.90;78.00;;;;;;5055059;28;20017;-87
2022/10/10 10:31:05;;;;;;;9.10;3.05;;;17.80;77.60;;;;;;5054756;28;20020;-86
2022/10/10 10:33:55;;;;;;;7.05;2.85;;;17.70;77.30;;;;;;5054958;28;20112;-87
2022/10/10 10:36:56;;;;;;;6.38;3.05;;;17.80;77.20;;;;;;5054816;28;20457;-87
2022/10/10 10:39:34;;;;;;;7.00;2.38;;;17.60;77.10;;;;;;5056442;28;20480;-87
2022/10/10 10:42:37;;;;;;;8.30;2.63;;;17.60;77.00;;;;;;5055024;28;20036;-87
2022/10/10 10:45:31;;;;;;;6.63;3.15;;;17.60;77.00;;;;;;5038287;28;20388;-87
2022/10/10 10:47:59;;;;;;;10.63;3.05;;;17.60;77.10;;;;;;5054477;28;20078;-85
2022/10/10 10:50:25;;;;;;;8.50;2.75;;;17.60;77.00;;;;;;5054443;28;20037;-84
2022/10/10 10:53:09;;;;;;;7.47;2.85;;;17.60;76.90;;;;;;5054221;28;20040;-84
2022/10/10 10:55:35;;;;;;;;;;;17.70;77.10;;;;;;5054529;28;20060;-84
2022/10/10 10:58:23;;;;;;;7.90;2.40;;;18.00;77.40;;;;;;5054463;28;19912;-84
2022/10/10 11:01:01;;;;;;;9.05;2.50;;;18.30;77.80;;;;;;5054108;28;20033;-85
2022/10/10 11:03:44;;;;;;;7.13;2.70;;;18.80;77.20;;;;;;5054031;28;20472;-81
2022/10/10 11:06:15;;;;;;;7.95;2.80;;;19.40;76.80;;;;;;5053839;28;20573;-84
2022/10/10 11:09:19;;;;;;;5.93;2.40;;;20.00;75.20;;;;;;5053889;28;20060;-86
2022/10/10 11:12:35;;;;;;;9.15;2.95;;;20.80;72.80;;;;;;5055601;28;20028;-86
2022/10/10 11:15:04;;;;;;;6.95;2.42;;;21.70;71.40;;;;;;5037556;28;20021;-86
2022/10/10 11:17:54;;;;;;;5.80;2.10;;;22.50;69.90;;;;;;5053677;28;20498;-87
2022/10/10 11:20:28;;;;;;;5.88;2.25;;;23.00;66.80;;;;;;5054445;28;20384;-86
2022/10/10 11:23:16;;;;;;;9.15;2.38;;;23.10;65.60;;;;;;5053707;28;20040;-85
2022/10/10 11:25:48;;;;;;;5.57;2.03;;;23.40;63.80;;;;;;5037738;28;20024;-83
2022/10/10 11:28:41;;;;;;;6.18;2.15;;;23.80;63.40;;;;;;5053707;28;20032;-84
2022/10/10 11:31:32;;;;;;;5.73;1.90;;;24.20;61.30;;;;;;5053488;28;20021;-86
2022/10/10 11:34:02;;;;;;;9.93;2.33;;;24.50;59.20;;;;;;5054624;28;20021;-86
2022/10/10 11:36:30;;;;;;;9.50;2.35;;;24.70;58.60;;;;;;5053801;28;20033;-84
2022/10/10 11:39:15;;;;;;;8.77;2.58;;;24.40;57.50;;;;;;5053719;28;20025;-85
2022/10/10 11:41:46;;;;;;;6.68;2.60;;;24.10;57.70;;;;;;5054729;28;20495;-85
2022/10/10 11:44:28;;;;;;;7.88;2.90;;;23.70;57.40;;;;;;5053352;28;20021;-85
2022/10/10 11:47:12;;;;;;;6.47;2.30;;;23.40;57.60;;;;;;5053420;28;20028;-81
2022/10/10 11:50:04;;;;;;;9.20;3.00;;;23.00;58.20;;;;;;5053004;28;20024;-83
2022/10/10 11:52:40;;;;;;;10.70;3.13;;;22.80;58.70;;;;;;5053325;28;20021;-83
2022/10/10 11:55:17;;;;;;;10.23;2.75;;;22.70;58.90;;;;;;5054339;28;20029;-85
2022/10/10 11:57:52;;;;;;;10.57;2.75;;;22.50;59.30;;;;;;5052963;28;20025;-85
2022/10/10 12:00:18;;;;;;;11.88;3.28;;;22.20;59.60;;;;;;5053299;28;20104;-85
2022/10/10 12:02:45;;;;;;;8.35;3.03;;;21.90;60.10;;;;;;5054051;28;20544;-86
2022/10/10 12:05:27;;;;;;;8.52;3.05;;;21.80;60.90;;;;;;5052825;28;20104;-85
2022/10/10 12:07:55;;;;;;;7.05;2.15;;;22.00;61.80;;;;;;5053492;28;20398;-86
2022/10/10 12:10:25;;;;;;;7.20;3.00;;;22.30;61.50;;;;;;5052889;28;20032;-88
2022/10/10 12:12:55;;;;;;;7.45;2.78;;;22.40;60.90;;;;;;5052660;28;20497;-84
2022/10/10 12:15:28;;;;;;;8.57;3.00;;;22.40;61.10;;;;;;5052623;28;20017;-85
2022/10/10 12:17:54;;;;;;;8.45;2.28;;;22.80;61.70;;;;;;5052851;28;20032;-85
2022/10/10 12:20:26;;;;;;;8.32;2.70;;;23.30;61.50;;;;;;5035985;28;20025;-83
2022/10/10 12:23:14;;;;;;;6.32;2.13;;;23.90;60.50;;;;;;5053165;28;20025;-86
2022/10/10 12:25:42;;;;;;;7.88;2.33;;;24.10;58.80;;;;;;5053675;28;20036;-86
2022/10/10 12:28:14;;;;;;;7.22;2.60;;;23.90;58.40;;;;;;5053017;28;20472;-87
2022/10/10 12:30:51;;;;;;;5.50;2.13;;;23.50;58.50;;;;;;5053103;28;20033;-85
2022/10/10 12:33:32;;;;;;;10.73;2.92;;;23.10;58.90;;;;;;5053715;28;20017;-88
2022/10/10 12:36:17;;;;;;;7.43;2.80;;;22.70;59.70;;;;;;5054180;28;20033;-83
2022/10/10 12:39:08;;;;;;;7.68;3.05;;;22.20;60.70;;;;;;5052433;28;20032;-83
2022/10/10 12:41:54;;;;;;;12.02;3.45;;;21.60;62.00;;;;;;5053410;28;20104;-81
2022/10/10 12:44:24;;;;;;;11.77;3.30;;;21.20;63.20;;;;;;5053342;28;20424;-84
2022/10/10 12:47:15;;;;;;;8.48;2.80;;;20.90;63.80;;;;;;5052301;28;20025;-85
2022/10/10 12:49:52;;;;;;;7.53;2.88;;;20.60;65.30;;;;;;5052029;28;20123;-84
2022/10/10 12:52:26;;;;;;;11.00;3.92;;;20.30;65.90;;;;;;5052144;28;20067;-82
2022/10/10 12:54:59;;;;;;;12.68;4.65;;;20.00;67.50;;;;;;5052054;28;20108;-84
2022/10/10 12:57:37;;;;;;;12.65;4.28;;;19.80;68.40;;;;;;5051906;28;20056;-84
2022/10/10 13:00:24;;;;;;;9.68;4.10;;;19.50;69.30;;;;;;5035541;28;20021;-84
2022/10/10 13:03:00;;;;;;;10.70;4.68;;;19.30;70.50;;;;;;5052251;28;20416;-84
2022/10/10 13:05:33;;;;;;;10.30;4.28;;;19.10;71.60;;;;;;5052099;28;20048;-87
2022/10/10 13:08:05;;;;;;;9.75;4.22;;;18.90;71.90;;;;;;5052193;28;20053;-84
2022/10/10 13:10:32;;;;;;;10.23;4.50;;;18.80;72.50;;;;;;5052614;28;20033;-87
2022/10/10 13:13:05;;;;;;;8.85;3.40;;;18.70;72.90;;;;;;5052695;28;20096;-87
2022/10/10 13:15:34;;;;;;;10.45;4.03;;;18.60;73.10;;;;;;5052409;28;20017;-87
2022/10/10 13:18:00;;;;;;;12.90;4.25;;;18.50;73.70;;;;;;5053465;28;20021;-82